createdAt,value
2019-01-24T00:03:09.137Z,-1.02
2019-01-24T00:08:10.716Z,-1.03
2019-01-24T00:13:12.252Z,-1.04
2019-01-24T00:18:13.844Z,-1.07
2019-01-24T00:23:15.519Z,-1.07
2019-01-24T00:28:17.049Z,-1.11
2019-01-24T00:33:18.613Z,-1.08
2019-01-24T00:38:20.201Z,-1.11
2019-01-24T00:43:21.881Z,-1.06
2019-01-24T00:48:24.292Z,-1.03
2019-01-24T00:53:26.191Z,-1.01
2019-01-24T00:58:28.082Z,-1.02
2019-01-24T01:03:29.591Z,-0.94
2019-01-24T01:08:31.179Z,-0.88
2019-01-24T01:13:32.756Z,-0.79
2019-01-24T01:18:34.330Z,-0.71
2019-01-24T01:23:35.910Z,-0.79
2019-01-24T01:28:37.483Z,-0.81
2019-01-24T01:33:39.367Z,-0.78
2019-01-24T01:38:40.974Z,-0.83
2019-01-24T01:43:43.119Z,-0.81
2019-01-24T01:48:44.745Z,-0.87
2019-01-24T01:53:46.314Z,-0.82
2019-01-24T01:58:48.385Z,-0.86
2019-01-24T02:03:50.290Z,-0.87
2019-01-24T02:08:51.968Z,-0.89
2019-01-24T02:13:53.535Z,-0.91
2019-01-24T02:18:55.081Z,-0.92
2019-01-24T02:23:56.705Z,-0.91
2019-01-24T02:28:58.281Z,-0.98
2019-01-24T02:33:59.843Z,-0.98
2019-01-24T02:39:01.396Z,-0.96
2019-01-24T02:44:02.923Z,-0.95
2019-01-24T02:49:04.465Z,-1.00
2019-01-24T02:54:06.005Z,-1.01
2019-01-24T02:59:07.604Z,-0.96
2019-01-24T03:04:09.180Z,-0.79
2019-01-24T03:09:10.711Z,-0.68
2019-01-24T03:14:12.291Z,-0.65
2019-01-24T03:19:14.607Z,-0.75
2019-01-24T03:24:16.242Z,-0.73
2019-01-24T03:29:17.822Z,-0.70
2019-01-24T03:34:19.450Z,-0.77
2019-01-24T03:39:21.066Z,-0.93
2019-01-24T03:44:22.622Z,-1.06
2019-01-24T03:49:24.567Z,-1.07
2019-01-24T03:54:26.132Z,-1.02
2019-01-24T03:59:27.675Z,-1.00
2019-01-24T04:04:29.205Z,-1.23
2019-01-24T04:09:30.825Z,-1.38
2019-01-24T04:14:32.763Z,-1.34
2019-01-24T04:19:34.347Z,-1.30
2019-01-24T04:24:35.909Z,-1.16
2019-01-24T04:29:37.960Z,-1.04
2019-01-24T04:34:39.525Z,-0.98
2019-01-24T04:39:41.478Z,-0.98
2019-01-24T04:44:42.997Z,-0.96
2019-01-24T04:49:44.572Z,-0.97
2019-01-24T04:54:46.137Z,-0.97
2019-01-24T04:59:47.724Z,-0.98
2019-01-24T05:04:49.311Z,-1.01
2019-01-24T05:09:51.322Z,-0.95
2019-01-24T05:14:52.835Z,-0.92
2019-01-24T05:19:54.383Z,-0.88
2019-01-24T05:24:56.042Z,-0.92
2019-01-24T05:29:57.633Z,-0.96
2019-01-24T05:34:59.173Z,-0.98
2019-01-24T05:40:00.724Z,-0.96
2019-01-24T05:45:02.262Z,-0.92
2019-01-24T05:50:04.606Z,-0.90
2019-01-24T05:55:06.817Z,-1.04
2019-01-24T06:00:10.967Z,-1.17
2019-01-24T06:05:12.757Z,-1.05
2019-01-24T06:10:14.665Z,-0.98
2019-01-24T06:15:16.235Z,-0.92
2019-01-24T06:20:17.853Z,-0.92
2019-01-24T06:25:19.763Z,-0.92
2019-01-24T06:30:21.321Z,-0.93
2019-01-24T06:35:23.192Z,-0.96
2019-01-24T06:40:24.811Z,-0.94
2019-01-24T06:45:26.350Z,-0.94
2019-01-24T06:50:28.078Z,-0.96
2019-01-24T06:55:29.787Z,-0.93
2019-01-24T07:00:32.036Z,-0.89
2019-01-24T07:05:34.033Z,-0.87
2019-01-24T07:10:35.913Z,-0.86
2019-01-24T07:15:37.418Z,-0.90
2019-01-24T07:20:38.987Z,-0.93
2019-01-24T07:25:40.513Z,-0.94
2019-01-24T07:30:42.067Z,-0.97
2019-01-24T07:35:43.852Z,-0.98
2019-01-24T07:40:45.412Z,-0.99
2019-01-24T07:45:47.443Z,-0.94
2019-01-24T07:50:49.026Z,-0.98
2019-01-24T07:55:50.636Z,-0.90
2019-01-24T08:00:52.207Z,-0.96
2019-01-24T08:05:53.766Z,-1.00
2019-01-24T08:10:55.312Z,-0.91
2019-01-24T08:15:56.875Z,-0.84
2019-01-24T08:20:58.555Z,-0.86
2019-01-24T08:26:00.908Z,-0.86
2019-01-24T08:31:02.774Z,-0.84
2019-01-24T08:36:04.365Z,-0.82
2019-01-24T08:41:05.966Z,-0.72
2019-01-24T08:46:07.539Z,-0.63
2019-01-24T08:51:09.174Z,-0.53
2019-01-24T08:56:11.247Z,-0.42
2019-01-24T09:01:12.927Z,-0.52
2019-01-24T09:06:14.557Z,-0.46
2019-01-24T09:11:16.160Z,-0.37
2019-01-24T09:16:17.805Z,-0.29
2019-01-24T09:21:19.323Z,-0.21
2019-01-24T09:26:20.873Z,-0.14
2019-01-24T09:31:22.904Z,-0.07
2019-01-24T09:36:29.208Z,-0.13
2019-01-24T09:41:28.678Z,-0.10
2019-01-24T09:46:30.612Z,-0.12
2019-01-24T09:51:32.187Z,0.03
2019-01-24T09:56:33.769Z,0.07
2019-01-24T10:01:35.637Z,0.31
2019-01-24T10:06:37.221Z,0.61
2019-01-24T10:11:38.821Z,0.79
2019-01-24T10:16:40.454Z,0.75
2019-01-24T10:21:42.092Z,0.73
2019-01-24T10:26:44.076Z,0.80
2019-01-24T10:31:46.486Z,1.04
2019-01-24T10:36:48.051Z,1.24
2019-01-24T10:41:49.686Z,1.23
2019-01-24T10:46:52.585Z,1.17
2019-01-24T10:51:54.232Z,1.19
2019-01-24T10:56:56.292Z,1.24
2019-01-24T11:01:58.015Z,1.15
2019-01-24T11:06:59.996Z,1.12
2019-01-24T11:12:01.608Z,1.23
2019-01-24T11:17:03.333Z,1.42
2019-01-24T11:22:04.836Z,1.46
2019-01-24T11:27:06.810Z,1.52
2019-01-24T11:32:08.768Z,1.61
2019-01-24T11:37:10.367Z,1.73
2019-01-24T11:42:12.017Z,1.89
2019-01-24T11:47:13.525Z,1.92
2019-01-24T11:52:15.112Z,1.99
2019-01-24T11:57:17.109Z,2.01
2019-01-24T12:02:18.761Z,2.03
2019-01-24T12:07:20.411Z,2.13
2019-01-24T12:12:22.419Z,2.06
2019-01-24T12:17:24.854Z,2.03
2019-01-24T12:22:26.504Z,2.11
2019-01-24T12:27:28.440Z,2.32
2019-01-24T12:32:30.565Z,2.38
2019-01-24T12:37:32.225Z,2.46
2019-01-24T12:42:34.174Z,2.25
2019-01-24T12:47:35.748Z,2.29
2019-01-24T12:52:37.342Z,2.45
2019-01-24T12:57:39.313Z,2.60
2019-01-24T13:02:40.993Z,2.45
2019-01-24T13:07:42.544Z,2.40
2019-01-24T13:12:44.143Z,2.53
2019-01-24T13:17:46.136Z,2.30
2019-01-24T13:22:47.760Z,2.19
2019-01-24T13:27:50.754Z,2.34
2019-01-24T13:32:52.571Z,2.41
2019-01-24T13:37:54.348Z,2.38
2019-01-24T13:42:56.443Z,2.53
2019-01-24T13:47:59.063Z,2.67
2019-01-24T13:53:01.353Z,2.56
2019-01-24T13:58:03.275Z,2.35
2019-01-24T14:03:14.288Z,2.13
2019-01-24T14:08:15.901Z,2.05
2019-01-24T14:13:17.558Z,1.99
2019-01-24T14:18:19.121Z,1.85
2019-01-24T14:23:20.721Z,1.75
2019-01-24T14:28:22.237Z,1.64
2019-01-24T14:33:23.821Z,1.64
2019-01-24T14:38:25.788Z,1.53
2019-01-24T14:43:27.413Z,1.48
2019-01-24T14:48:29.601Z,1.42
2019-01-24T14:53:31.149Z,1.45
2019-01-24T14:58:32.695Z,1.39
2019-01-24T15:03:34.347Z,1.34
2019-01-24T15:08:35.977Z,1.30
2019-01-24T15:13:37.682Z,1.34
2019-01-24T15:18:39.285Z,1.29
2019-01-24T15:23:40.881Z,1.27
2019-01-24T15:28:42.551Z,1.12
2019-01-24T15:33:44.507Z,1.03
2019-01-24T15:38:46.104Z,0.97
2019-01-24T15:43:47.692Z,0.89
2019-01-24T15:48:49.257Z,0.84
2019-01-24T15:53:50.858Z,0.76
2019-01-24T15:58:52.788Z,0.68
2019-01-24T16:03:54.370Z,0.60
2019-01-24T16:09:03.571Z,0.57
2019-01-24T16:14:05.208Z,0.53
2019-01-24T16:19:06.851Z,0.52
2019-01-24T16:24:08.431Z,0.51
2019-01-24T16:29:09.987Z,0.49
2019-01-24T16:34:11.909Z,0.43
2019-01-24T16:39:13.522Z,0.31
2019-01-24T16:44:15.319Z,0.34
2019-01-24T16:49:16.937Z,0.30
2019-01-24T16:54:18.676Z,0.29
2019-01-24T16:59:21.731Z,0.20
2019-01-24T17:04:23.281Z,0.16
2019-01-24T17:09:24.890Z,0.16
2019-01-24T17:14:26.431Z,0.16
2019-01-24T17:19:28.374Z,0.14
2019-01-24T17:24:30.403Z,0.09
2019-01-24T17:29:32.204Z,0.06
2019-01-24T17:34:33.827Z,0.02
2019-01-24T17:39:35.450Z,-0.02
2019-01-24T17:44:37.117Z,-0.02
2019-01-24T17:49:38.743Z,0.06
2019-01-24T17:54:40.277Z,0.08
2019-01-24T17:59:42.671Z,0.04
2019-01-24T18:04:44.341Z,0.07
2019-01-24T18:09:45.929Z,0.13
2019-01-24T18:14:47.547Z,0.14
2019-01-24T18:19:49.365Z,0.14
2019-01-24T18:24:50.977Z,0.15
2019-01-24T18:29:52.533Z,0.12
2019-01-24T18:34:54.132Z,0.09
2019-01-24T18:39:55.676Z,0.12
2019-01-24T18:44:57.294Z,0.09
2019-01-24T18:49:58.889Z,0.07
2019-01-24T18:55:01.227Z,0.02
2019-01-24T19:00:03.752Z,-0.02
2019-01-24T19:05:06.710Z,-0.06
2019-01-24T19:10:09.071Z,-0.12
2019-01-24T19:15:12.289Z,-0.14
2019-01-24T19:20:15.018Z,-0.17
2019-01-24T19:25:16.716Z,-0.20
2019-01-24T19:30:23.587Z,-0.18
2019-01-24T19:35:26.047Z,-0.21
2019-01-24T19:40:27.974Z,-0.23
2019-01-24T19:45:30.121Z,-0.26
2019-01-24T19:50:31.691Z,-0.30
2019-01-24T19:55:34.044Z,-0.30
2019-01-24T20:00:36.708Z,-0.30
2019-01-24T20:05:38.564Z,-0.32
2019-01-24T20:10:40.334Z,-0.27
2019-01-24T20:15:43.220Z,-0.23
2019-01-24T20:20:44.870Z,-0.21
2019-01-24T20:25:46.647Z,-0.19
2019-01-24T20:30:48.267Z,-0.20
2019-01-24T20:35:52.706Z,-0.23
2019-01-24T20:40:54.506Z,-0.32
2019-01-24T20:45:56.773Z,-0.28
2019-01-24T20:51:01.010Z,-0.22
2019-01-24T20:56:03.056Z,-0.26
2019-01-24T21:01:05.026Z,-0.27
2019-01-24T21:06:06.585Z,-0.29
2019-01-24T21:11:08.505Z,-0.29
2019-01-24T21:16:10.700Z,-0.30
2019-01-24T21:21:12.714Z,-0.34
2019-01-24T21:26:14.372Z,-0.40
2019-01-24T21:31:18.047Z,-0.40
2019-01-24T21:36:19.705Z,-0.41
2019-01-24T21:41:21.372Z,-0.50
2019-01-24T21:46:24.618Z,-0.47
2019-01-24T21:51:26.352Z,-0.45
2019-01-24T21:56:27.973Z,-0.47
2019-01-24T22:01:29.608Z,-0.45
2019-01-24T22:06:31.398Z,-0.42
2019-01-24T22:11:33.055Z,-0.43
2019-01-24T22:16:34.632Z,-0.41
2019-01-24T22:21:36.287Z,-0.41
2019-01-24T22:26:38.269Z,-0.46
2019-01-24T22:31:39.879Z,-0.45
2019-01-24T22:36:41.568Z,-0.42
2019-01-24T22:41:43.462Z,-0.50
2019-01-24T22:46:45.031Z,-0.55
2019-01-24T22:51:46.638Z,-0.54
2019-01-24T22:56:48.685Z,-0.55
2019-01-24T23:02:00.791Z,-0.52
2019-01-24T23:07:02.411Z,-0.50
2019-01-24T23:12:04.147Z,-0.46
2019-01-24T23:17:05.686Z,-0.40
2019-01-24T23:22:07.367Z,-0.35
2019-01-24T23:27:08.923Z,-0.30
2019-01-24T23:32:10.929Z,-0.23
2019-01-24T23:37:12.489Z,-0.26
2019-01-24T23:42:14.062Z,-0.31
2019-01-24T23:47:15.663Z,-0.33
2019-01-24T23:52:17.239Z,-0.27
2019-01-24T23:57:23.894Z,-0.24
